createdAt,value
2022-10-09T00:01:15.707Z,94.43
2022-10-09T00:03:44.276Z,94.58
2022-10-09T00:06:13.496Z,94.64
2022-10-09T00:08:40.689Z,94.58
2022-10-09T00:11:08.499Z,94.44
2022-10-09T00:13:35.584Z,94.24
2022-10-09T00:16:04.473Z,95.20
2022-10-09T00:18:31.064Z,94.38
2022-10-09T00:20:57.705Z,95.69
2022-10-09T00:23:27.241Z,94.93
2022-10-09T00:25:59.418Z,95.08
2022-10-09T00:28:35.336Z,95.16
2022-10-09T00:31:06.125Z,95.56
2022-10-09T00:33:34.225Z,94.73
2022-10-09T00:36:05.957Z,95.02
2022-10-09T00:38:32.705Z,95.34
2022-10-09T00:40:59.289Z,95.44
2022-10-09T00:43:39.454Z,95.29
2022-10-09T00:46:06.291Z,95.40
2022-10-09T00:48:36.686Z,95.50
2022-10-09T00:51:05.070Z,95.93
2022-10-09T00:53:31.737Z,95.47
2022-10-09T00:55:58.455Z,95.22
2022-10-09T00:58:27.357Z,95.36
2022-10-09T01:00:54.272Z,95.40
2022-10-09T01:03:20.738Z,95.43
2022-10-09T01:06:16.799Z,95.76
2022-10-09T01:09:05.948Z,95.10
2022-10-09T01:11:52.607Z,95.35
2022-10-09T01:14:25.226Z,95.20
2022-10-09T01:16:59.281Z,95.13
2022-10-09T01:19:45.918Z,94.89
2022-10-09T01:22:18.383Z,95.57
2022-10-09T01:24:50.213Z,95.24
2022-10-09T01:27:26.268Z,95.33
2022-10-09T01:29:56.216Z,95.78
2022-10-09T01:32:26.912Z,95.95
2022-10-09T01:34:53.867Z,96.31
2022-10-09T01:37:21.141Z,96.04
2022-10-09T01:39:48.472Z,96.06
2022-10-09T01:42:15.397Z,95.82
2022-10-09T01:44:42.178Z,96.08
2022-10-09T01:47:16.585Z,95.83
2022-10-09T01:50:12.646Z,96.64
2022-10-09T01:52:43.255Z,96.16
2022-10-09T01:55:30.672Z,96.01
2022-10-09T01:58:09.703Z,96.10
2022-10-09T02:01:00.264Z,95.85
2022-10-09T02:03:27.402Z,96.18
2022-10-09T02:05:54.727Z,96.11
2022-10-09T02:08:22.254Z,96.39
2022-10-09T02:10:51.505Z,96.10
2022-10-09T02:13:18.113Z,96.29
2022-10-09T02:15:51.814Z,95.94
2022-10-09T02:18:23.203Z,96.59
2022-10-09T02:20:52.211Z,96.54
2022-10-09T02:23:19.855Z,96.25
2022-10-09T02:25:46.520Z,96.97
2022-10-09T02:28:13.059Z,96.62
2022-10-09T02:31:02.914Z,96.59
2022-10-09T02:33:34.061Z,96.62
2022-10-09T02:36:01.424Z,96.30
2022-10-09T02:38:28.197Z,96.84
2022-10-09T02:41:00.755Z,96.72
2022-10-09T02:43:27.685Z,96.68
2022-10-09T02:45:54.168Z,97.31
2022-10-09T02:48:21.212Z,97.01
2022-10-09T02:50:47.632Z,97.03
2022-10-09T02:53:14.092Z,96.77
2022-10-09T02:55:40.623Z,97.24
2022-10-09T02:58:07.104Z,97.49
2022-10-09T03:00:33.548Z,98.03
2022-10-09T03:03:00.062Z,97.30
2022-10-09T03:05:26.538Z,96.50
2022-10-09T03:07:53.645Z,96.83
2022-10-09T03:10:20.766Z,96.89
2022-10-09T03:12:48.030Z,98.08
2022-10-09T03:15:15.853Z,98.01
2022-10-09T03:17:44.686Z,98.79
2022-10-09T03:20:11.166Z,98.40
2022-10-09T03:22:37.855Z,98.51
2022-10-09T03:25:04.594Z,97.90
2022-10-09T03:27:31.020Z,97.60
2022-10-09T03:29:58.601Z,96.77
2022-10-09T03:32:25.495Z,97.15
2022-10-09T03:34:52.039Z,97.61
2022-10-09T03:37:18.511Z,99.14
2022-10-09T03:39:45.029Z,98.81
2022-10-09T03:42:11.450Z,98.94
2022-10-09T03:44:37.889Z,99.86
2022-10-09T03:47:04.413Z,99.66
2022-10-09T03:49:30.896Z,98.78
2022-10-09T03:51:57.353Z,99.20
2022-10-09T03:54:23.831Z,99.64
2022-10-09T03:56:50.623Z,99.84
2022-10-09T03:59:17.079Z,99.84
2022-10-09T04:01:43.519Z,100.00
2022-10-09T04:04:09.952Z,100.00
2022-10-09T04:06:36.421Z,100.00
2022-10-09T04:09:02.857Z,100.00
2022-10-09T04:11:29.497Z,99.93
2022-10-09T04:13:55.956Z,100.00
2022-10-09T04:16:22.463Z,100.00
2022-10-09T04:18:49.144Z,100.00
2022-10-09T04:21:15.682Z,100.00
2022-10-09T04:23:42.172Z,100.00
2022-10-09T04:26:11.470Z,100.00
2022-10-09T04:28:38.039Z,100.00
2022-10-09T04:31:04.846Z,100.00
2022-10-09T04:33:31.280Z,100.00
2022-10-09T04:35:57.893Z,100.00
2022-10-09T04:38:24.892Z,100.00
2022-10-09T04:41:03.327Z,100.00
2022-10-09T04:43:30.439Z,100.00
2022-10-09T04:45:56.971Z,100.00
2022-10-09T04:48:23.518Z,100.00
2022-10-09T04:50:50.153Z,100.00
2022-10-09T04:53:16.980Z,100.00
2022-10-09T04:55:44.143Z,100.00
2022-10-09T04:58:12.027Z,100.00
2022-10-09T05:00:44.668Z,100.00
2022-10-09T05:03:11.614Z,100.00
2022-10-09T05:05:38.086Z,100.00
2022-10-09T05:08:04.675Z,100.00
2022-10-09T05:10:32.338Z,100.00
2022-10-09T05:12:59.338Z,100.00
2022-10-09T05:15:25.795Z,100.00
2022-10-09T05:17:52.258Z,99.97
2022-10-09T05:20:18.717Z,99.65
2022-10-09T05:22:47.095Z,99.91
2022-10-09T05:25:14.254Z,99.44
2022-10-09T05:27:40.694Z,99.06
2022-10-09T05:30:07.622Z,99.11
2022-10-09T05:32:34.110Z,99.75
2022-10-09T05:35:00.536Z,99.00
2022-10-09T05:37:27.068Z,99.12
2022-10-09T05:39:53.521Z,99.23
2022-10-09T05:42:19.957Z,99.55
2022-10-09T05:44:47.411Z,99.55
2022-10-09T05:47:17.833Z,99.60
2022-10-09T05:49:44.297Z,99.76
2022-10-09T05:52:10.836Z,100.00
2022-10-09T05:54:37.306Z,100.00
2022-10-09T05:57:04.919Z,99.93
2022-10-09T05:59:31.346Z,100.00
2022-10-09T06:01:58.063Z,99.87
2022-10-09T06:04:24.929Z,99.23
2022-10-09T06:06:52.975Z,98.80
2022-10-09T06:09:25.764Z,98.77
2022-10-09T06:11:54.718Z,98.40
2022-10-09T06:14:22.186Z,99.03
2022-10-09T06:16:49.077Z,98.73
2022-10-09T06:19:16.898Z,98.54
2022-10-09T06:21:43.962Z,98.73
2022-10-09T06:24:26.995Z,98.71
2022-10-09T06:26:55.003Z,98.54
2022-10-09T06:29:24.072Z,98.45
2022-10-09T06:31:50.816Z,97.50
2022-10-09T06:34:17.314Z,97.56
2022-10-09T06:36:43.739Z,97.13
2022-10-09T06:39:10.688Z,97.21
2022-10-09T06:41:37.124Z,96.45
2022-10-09T06:44:05.851Z,95.95
2022-10-09T06:46:38.083Z,95.32
2022-10-09T06:49:06.957Z,95.48
2022-10-09T06:51:34.726Z,95.20
2022-10-09T06:54:03.375Z,95.44
2022-10-09T06:56:31.627Z,94.49
2022-10-09T06:59:02.353Z,94.27
2022-10-09T07:01:32.876Z,94.05
2022-10-09T07:04:07.301Z,93.83
2022-10-09T07:06:37.700Z,92.77
2022-10-09T07:09:07.361Z,92.89
2022-10-09T07:11:43.111Z,92.09
2022-10-09T07:14:10.987Z,90.75
2022-10-09T07:16:40.490Z,89.96
2022-10-09T07:19:08.484Z,88.71
2022-10-09T07:21:35.472Z,87.13
2022-10-09T07:24:03.031Z,85.18
2022-10-09T07:26:31.726Z,83.33
2022-10-09T07:28:58.889Z,83.21
2022-10-09T07:31:25.402Z,82.11
2022-10-09T07:33:53.203Z,79.59
2022-10-09T07:36:19.945Z,78.76
2022-10-09T07:38:50.783Z,77.25
2022-10-09T07:41:17.322Z,76.69
2022-10-09T07:43:43.974Z,76.02
2022-10-09T07:46:15.718Z,74.81
2022-10-09T07:48:42.394Z,74.61
2022-10-09T07:51:13.027Z,73.98
2022-10-09T07:53:39.531Z,73.95
2022-10-09T07:56:08.936Z,71.65
2022-10-09T07:58:35.427Z,72.27
2022-10-09T08:01:06.711Z,72.04
2022-10-09T08:03:34.147Z,70.22
2022-10-09T08:06:01.013Z,70.47
2022-10-09T08:08:27.541Z,69.52
2022-10-09T08:10:54.092Z,69.79
2022-10-09T08:13:20.578Z,69.13
2022-10-09T08:15:47.042Z,71.47
2022-10-09T08:18:13.730Z,69.49
2022-10-09T08:20:40.198Z,69.53
2022-10-09T08:23:58.040Z,71.04
2022-10-09T08:26:26.990Z,70.00
2022-10-09T08:28:55.703Z,68.24
2022-10-09T08:31:22.785Z,68.05
2022-10-09T08:33:52.753Z,68.43
2022-10-09T08:36:19.473Z,68.94
2022-10-09T08:38:47.676Z,67.02
2022-10-09T08:41:38.797Z,66.90
2022-10-09T08:44:14.519Z,66.84
2022-10-09T08:47:16.085Z,64.90
2022-10-09T08:50:10.865Z,64.20
2022-10-09T08:53:02.265Z,64.67
2022-10-09T08:55:42.749Z,64.33
2022-10-09T08:58:15.384Z,63.79
2022-10-09T09:00:53.111Z,64.30
2022-10-09T09:03:42.739Z,64.47
2022-10-09T09:06:12.884Z,66.60
2022-10-09T09:08:51.353Z,65.06
2022-10-09T09:11:34.727Z,64.82
2022-10-09T09:14:01.125Z,65.23
2022-10-09T09:16:45.559Z,62.77
2022-10-09T09:19:39.104Z,61.55
2022-10-09T09:22:10.924Z,62.84
2022-10-09T09:24:52.427Z,63.28
2022-10-09T09:27:26.396Z,64.24
2022-10-09T09:30:01.367Z,64.92
2022-10-09T09:32:29.568Z,65.70
2022-10-09T09:35:08.888Z,65.57
2022-10-09T09:37:37.651Z,65.29
2022-10-09T09:42:52.054Z,61.33
2022-10-09T09:45:23.238Z,59.99
2022-10-09T09:47:56.194Z,60.27
2022-10-09T09:50:47.165Z,58.27
2022-10-09T09:53:27.277Z,59.25
2022-10-09T09:55:54.574Z,58.72
2022-10-09T09:58:22.971Z,56.96
2022-10-09T10:00:57.648Z,57.33
2022-10-09T10:03:25.140Z,57.09
2022-10-09T10:05:51.858Z,56.50
2022-10-09T10:08:26.843Z,58.63
2022-10-09T10:10:55.916Z,59.35
2022-10-09T10:13:28.343Z,60.44
2022-10-09T10:15:56.317Z,60.71
2022-10-09T10:18:25.006Z,58.83
2022-10-09T10:21:03.731Z,59.16
2022-10-09T10:23:46.211Z,58.83
2022-10-09T10:26:30.045Z,60.01
2022-10-09T10:29:01.800Z,59.99
2022-10-09T10:31:43.436Z,59.84
2022-10-09T10:34:25.250Z,59.92
2022-10-09T10:37:13.833Z,59.23
2022-10-09T10:39:45.927Z,57.03
2022-10-09T10:42:19.823Z,58.64
2022-10-09T10:44:50.495Z,57.26
2022-10-09T10:47:22.646Z,55.10
2022-10-09T10:49:49.359Z,54.53
2022-10-09T10:52:37.814Z,52.06
2022-10-09T10:55:22.162Z,50.72
2022-10-09T10:58:09.404Z,52.09
2022-10-09T11:00:41.310Z,52.01
2022-10-09T11:03:38.774Z,50.63
2022-10-09T11:06:18.884Z,50.79
2022-10-09T11:08:53.092Z,50.19
2022-10-09T11:11:24.796Z,50.62
2022-10-09T11:14:07.669Z,50.89
2022-10-09T11:16:51.238Z,49.95
2022-10-09T11:19:27.787Z,50.19
2022-10-09T11:22:15.015Z,50.58
2022-10-09T11:25:09.202Z,49.55
2022-10-09T11:27:45.096Z,49.16
2022-10-09T11:30:15.255Z,48.47
2022-10-09T11:33:05.714Z,44.34
2022-10-09T11:36:04.236Z,44.83
2022-10-09T11:38:56.255Z,46.01
2022-10-09T11:41:50.670Z,46.58
2022-10-09T11:45:00.621Z,46.45
2022-10-09T11:47:30.044Z,46.46
2022-10-09T11:50:37.483Z,46.77
2022-10-09T11:53:09.506Z,46.23
2022-10-09T11:55:36.800Z,48.08
2022-10-09T11:58:23.551Z,49.73
2022-10-09T12:00:53.956Z,50.41
2022-10-09T12:03:25.171Z,51.03
2022-10-09T12:05:51.611Z,50.60
2022-10-09T12:08:26.345Z,50.65
2022-10-09T12:10:54.719Z,50.92
2022-10-09T12:13:36.470Z,49.44
2022-10-09T12:16:03.056Z,50.07
2022-10-09T12:18:32.622Z,51.26
2022-10-09T12:21:01.775Z,49.36
2022-10-09T12:23:31.317Z,50.10
2022-10-09T12:25:58.692Z,50.45
2022-10-09T12:28:28.232Z,51.99
2022-10-09T12:30:56.044Z,49.97
2022-10-09T12:33:26.878Z,50.70
2022-10-09T12:36:23.529Z,50.98
2022-10-09T12:38:50.030Z,49.56
2022-10-09T12:41:21.894Z,50.42
2022-10-09T12:43:50.423Z,49.06
2022-10-09T12:46:31.962Z,50.93
2022-10-09T12:48:59.931Z,51.62
2022-10-09T12:51:29.694Z,51.29
2022-10-09T12:53:56.213Z,52.10
2022-10-09T12:56:29.109Z,53.27
2022-10-09T12:58:56.135Z,52.85
2022-10-09T13:01:23.348Z,52.67
2022-10-09T13:03:54.280Z,53.15
2022-10-09T13:06:24.496Z,52.60
2022-10-09T13:09:04.135Z,51.41
2022-10-09T13:11:40.421Z,50.69
2022-10-09T13:14:20.658Z,50.64
2022-10-09T13:16:48.706Z,47.93
2022-10-09T13:19:22.888Z,48.53
2022-10-09T13:22:20.175Z,46.93
2022-10-09T13:24:47.742Z,46.69
2022-10-09T13:27:14.696Z,47.18
2022-10-09T13:29:43.915Z,48.15
2022-10-09T13:32:14.663Z,49.82
2022-10-09T13:34:41.352Z,49.50
2022-10-09T13:37:07.894Z,49.92
2022-10-09T13:39:34.346Z,50.60
2022-10-09T13:42:02.113Z,51.63
2022-10-09T13:44:28.696Z,51.47
2022-10-09T13:46:55.203Z,52.27
2022-10-09T13:49:21.648Z,53.38
2022-10-09T13:51:48.093Z,52.94
2022-10-09T13:54:14.584Z,53.31
2022-10-09T13:56:41.034Z,53.42
2022-10-09T13:59:07.480Z,54.19
2022-10-09T14:01:34.066Z,54.29
2022-10-09T14:04:00.567Z,53.16
2022-10-09T14:06:27.002Z,52.45
2022-10-09T14:08:53.464Z,51.10
2022-10-09T14:11:19.926Z,49.96
2022-10-09T14:13:46.515Z,49.21
2022-10-09T14:16:13.092Z,51.20
2022-10-09T14:18:39.572Z,52.59
2022-10-09T14:21:14.769Z,52.54
2022-10-09T14:23:41.951Z,53.70
2022-10-09T14:26:08.375Z,53.48
2022-10-09T14:28:34.909Z,53.57
2022-10-09T14:31:05.939Z,54.09
2022-10-09T14:33:32.458Z,53.78
2022-10-09T14:36:18.703Z,54.03
2022-10-09T14:38:45.755Z,54.03
2022-10-09T14:41:13.913Z,54.31
2022-10-09T14:43:40.699Z,53.06
2022-10-09T14:46:14.466Z,52.46
2022-10-09T14:48:40.964Z,53.25
2022-10-09T14:51:12.628Z,52.99
2022-10-09T14:53:39.330Z,53.16
2022-10-09T14:56:09.063Z,53.86
2022-10-09T14:58:36.471Z,53.76
2022-10-09T15:01:03.365Z,53.44
2022-10-09T15:03:31.027Z,53.20
2022-10-09T15:06:03.371Z,53.54
2022-10-09T15:08:31.482Z,54.67
2022-10-09T15:10:57.904Z,54.16
2022-10-09T15:13:24.364Z,53.67
2022-10-09T15:15:50.790Z,54.45
2022-10-09T15:18:17.565Z,53.50
2022-10-09T15:20:45.447Z,55.42
2022-10-09T15:23:12.536Z,55.94
2022-10-09T15:25:39.049Z,55.39
2022-10-09T15:28:06.643Z,55.94
2022-10-09T15:30:35.750Z,56.64
2022-10-09T15:33:03.042Z,56.58
2022-10-09T15:35:29.507Z,57.29
2022-10-09T15:37:56.012Z,57.10
2022-10-09T15:40:22.599Z,56.64
2022-10-09T15:42:49.366Z,57.23
2022-10-09T15:45:16.353Z,57.09
2022-10-09T15:47:50.865Z,57.51
2022-10-09T15:50:17.931Z,58.78
2022-10-09T15:52:44.347Z,59.21
2022-10-09T15:55:10.846Z,58.95
2022-10-09T15:57:37.309Z,60.92
2022-10-09T16:00:04.020Z,60.73
2022-10-09T16:02:30.488Z,66.63
2022-10-09T16:04:56.943Z,61.68
2022-10-09T16:07:23.432Z,61.36
2022-10-09T16:09:50.029Z,62.38
2022-10-09T16:12:16.547Z,63.60
2022-10-09T16:14:43.101Z,62.99
2022-10-09T16:17:11.413Z,64.40
2022-10-09T16:19:38.130Z,64.36
2022-10-09T16:22:05.774Z,64.69
2022-10-09T16:24:32.700Z,65.90
2022-10-09T16:26:59.212Z,65.48
2022-10-09T16:29:25.743Z,66.55
2022-10-09T16:31:55.554Z,65.42
2022-10-09T16:34:22.240Z,66.33
2022-10-09T16:36:48.681Z,67.31
2022-10-09T16:39:15.117Z,68.52
2022-10-09T16:41:42.233Z,68.60
2022-10-09T16:44:12.939Z,70.55
2022-10-09T16:46:39.434Z,70.45
2022-10-09T16:49:06.115Z,71.01
2022-10-09T16:51:35.028Z,71.28
2022-10-09T16:54:03.698Z,70.92
2022-10-09T16:56:35.307Z,71.02
2022-10-09T16:59:04.854Z,70.29
2022-10-09T17:01:32.181Z,71.68
2022-10-09T17:03:59.876Z,72.00
2022-10-09T17:06:26.653Z,73.01
2022-10-09T17:08:55.389Z,73.50
2022-10-09T17:11:22.333Z,74.05
2022-10-09T17:13:48.894Z,74.42
2022-10-09T17:16:18.746Z,74.12
2022-10-09T17:18:46.327Z,74.84
2022-10-09T17:21:13.573Z,74.51
2022-10-09T17:23:40.003Z,75.05
2022-10-09T17:26:11.894Z,74.88
2022-10-09T17:28:38.889Z,75.19
2022-10-09T17:31:07.346Z,74.90
2022-10-09T17:33:34.630Z,76.20
2022-10-09T17:36:02.124Z,76.89
2022-10-09T17:38:28.576Z,77.54
2022-10-09T17:40:55.050Z,77.23
2022-10-09T17:43:21.483Z,78.18
2022-10-09T17:45:48.792Z,78.21
2022-10-09T17:48:15.255Z,77.48
2022-10-09T17:50:50.441Z,77.42
2022-10-09T17:53:18.201Z,78.36
2022-10-09T17:55:44.950Z,79.43
2022-10-09T17:58:11.570Z,80.05
2022-10-09T18:00:38.671Z,79.72
2022-10-09T18:03:05.202Z,79.02
2022-10-09T18:05:31.740Z,78.11
2022-10-09T18:07:58.261Z,79.22
2022-10-09T18:10:24.811Z,78.90
2022-10-09T18:12:51.244Z,79.52
2022-10-09T18:15:17.782Z,80.76
2022-10-09T18:17:44.246Z,80.42
2022-10-09T18:20:10.704Z,81.41
2022-10-09T18:22:37.407Z,81.67
2022-10-09T18:25:05.111Z,82.00
2022-10-09T18:27:31.606Z,81.66
2022-10-09T18:29:58.080Z,82.24
2022-10-09T18:32:24.552Z,81.35
2022-10-09T18:34:50.992Z,81.19
2022-10-09T18:37:19.853Z,82.58
2022-10-09T18:39:46.365Z,83.44
2022-10-09T18:42:12.812Z,82.73
2022-10-09T18:44:41.447Z,81.81
2022-10-09T18:47:11.823Z,82.58
2022-10-09T18:49:41.370Z,82.85
2022-10-09T18:52:09.145Z,83.24
2022-10-09T18:54:36.104Z,83.58
2022-10-09T18:57:03.416Z,83.41
2022-10-09T18:59:30.251Z,83.29
2022-10-09T19:01:56.692Z,82.83
2022-10-09T19:04:23.142Z,83.14
2022-10-09T19:06:49.745Z,83.36
2022-10-09T19:09:16.239Z,83.28
2022-10-09T19:11:42.680Z,83.97
2022-10-09T19:14:09.297Z,84.71
2022-10-09T19:16:36.096Z,84.89
2022-10-09T19:19:02.911Z,85.33
2022-10-09T19:21:30.044Z,85.16
2022-10-09T19:23:56.554Z,84.90
2022-10-09T19:26:23.257Z,85.27
2022-10-09T19:28:49.802Z,84.68
2022-10-09T19:31:16.223Z,84.84
2022-10-09T19:33:43.246Z,86.64
2022-10-09T19:36:12.238Z,86.02
2022-10-09T19:38:38.664Z,86.35
2022-10-09T19:41:07.103Z,85.90
2022-10-09T19:43:33.663Z,86.49
2022-10-09T19:46:01.798Z,86.18
2022-10-09T19:48:28.230Z,85.72
2022-10-09T19:50:54.692Z,86.26
2022-10-09T19:53:21.109Z,85.56
2022-10-09T19:55:47.575Z,86.46
2022-10-09T19:58:16.260Z,85.00
2022-10-09T20:00:43.857Z,85.89
2022-10-09T20:03:10.344Z,85.79
2022-10-09T20:05:36.828Z,86.83
2022-10-09T20:08:03.338Z,86.71
2022-10-09T20:10:29.933Z,86.67
2022-10-09T20:12:56.378Z,86.62
2022-10-09T20:15:23.045Z,87.15
2022-10-09T20:17:49.702Z,87.25
2022-10-09T20:20:16.208Z,87.48
2022-10-09T20:22:42.637Z,87.27
2022-10-09T20:25:09.281Z,87.25
2022-10-09T20:27:35.715Z,87.09
2022-10-09T20:30:02.220Z,87.82
2022-10-09T20:32:29.297Z,88.04
2022-10-09T20:34:58.014Z,88.14
2022-10-09T20:37:27.054Z,85.90
2022-10-09T20:39:53.511Z,85.02
2022-10-09T20:42:20.025Z,85.01
2022-10-09T20:44:47.797Z,84.64
2022-10-09T20:47:14.264Z,84.72
2022-10-09T20:49:43.568Z,85.84
2022-10-09T20:52:10.341Z,85.58
2022-10-09T20:54:38.302Z,87.17
2022-10-09T20:57:05.100Z,87.68
2022-10-09T20:59:31.585Z,88.44
2022-10-09T21:01:58.157Z,87.96
2022-10-09T21:04:24.608Z,87.30
2022-10-09T21:06:51.086Z,87.31
2022-10-09T21:09:17.566Z,87.72
2022-10-09T21:11:45.801Z,87.56
2022-10-09T21:14:12.697Z,85.37
2022-10-09T21:16:39.320Z,85.48
2022-10-09T21:19:06.307Z,86.32
2022-10-09T21:21:33.301Z,86.53
2022-10-09T21:24:00.473Z,85.46
2022-10-09T21:26:27.972Z,86.58
2022-10-09T21:28:59.327Z,86.26
2022-10-09T21:31:29.021Z,87.43
2022-10-09T21:33:56.073Z,87.08
2022-10-09T21:36:28.598Z,86.14
2022-10-09T21:38:55.084Z,87.71
2022-10-09T21:41:21.559Z,87.81
2022-10-09T21:43:48.543Z,86.85
2022-10-09T21:46:15.055Z,87.53
2022-10-09T21:48:41.475Z,88.01
2022-10-09T21:51:07.970Z,88.64
2022-10-09T21:53:34.531Z,89.34
2022-10-09T21:56:03.776Z,90.57
2022-10-09T21:58:30.459Z,90.97
2022-10-09T22:00:58.871Z,91.20
2022-10-09T22:03:26.864Z,91.07
2022-10-09T22:05:53.310Z,90.63
2022-10-09T22:08:20.048Z,90.50
2022-10-09T22:10:46.706Z,91.03
2022-10-09T22:13:13.207Z,90.61
2022-10-09T22:15:41.044Z,90.14
2022-10-09T22:18:07.504Z,89.91
2022-10-09T22:20:34.049Z,89.12
2022-10-09T22:23:00.501Z,88.38
2022-10-09T22:25:26.931Z,87.81
2022-10-09T22:27:53.401Z,88.25
2022-10-09T22:30:20.279Z,87.36
2022-10-09T22:32:46.713Z,87.48
2022-10-09T22:35:13.176Z,88.14
2022-10-09T22:37:39.638Z,89.76
2022-10-09T22:40:06.616Z,88.85
2022-10-09T22:42:33.439Z,88.43
2022-10-09T22:44:59.926Z,89.04
2022-10-09T22:47:28.210Z,87.83
2022-10-09T22:49:54.679Z,87.40
2022-10-09T22:52:21.148Z,86.86
2022-10-09T22:54:47.586Z,87.32
2022-10-09T22:57:14.356Z,88.42
2022-10-09T22:59:40.880Z,87.91
2022-10-09T23:02:07.560Z,88.22
2022-10-09T23:04:34.025Z,88.41
2022-10-09T23:07:00.812Z,88.21
2022-10-09T23:09:30.141Z,88.12
2022-10-09T23:11:57.045Z,86.81
2022-10-09T23:14:24.314Z,86.05
2022-10-09T23:16:50.848Z,86.20
2022-10-09T23:19:17.738Z,85.31
2022-10-09T23:21:45.430Z,85.98
2022-10-09T23:24:15.893Z,85.09
2022-10-09T23:26:44.531Z,85.57
2022-10-09T23:29:16.610Z,85.98
2022-10-09T23:31:43.435Z,86.97
2022-10-09T23:34:10.455Z,87.58
2022-10-09T23:36:36.943Z,88.96
2022-10-09T23:39:06.311Z,89.04
2022-10-09T23:41:33.118Z,88.35
2022-10-09T23:44:02.384Z,88.86
2022-10-09T23:46:32.947Z,88.35
2022-10-09T23:48:59.879Z,88.09
2022-10-09T23:51:27.109Z,87.56
2022-10-09T23:53:53.655Z,86.77
2022-10-09T23:56:29.387Z,87.18
2022-10-09T23:58:57.050Z,87.24
